createdAt,value
2018-04-17T00:01:31.915Z,75362.64
2018-04-17T00:04:01.799Z,75350.48
2018-04-17T00:06:31.547Z,75354.54
2018-04-17T00:09:01.315Z,75369.72
2018-04-17T00:11:31.168Z,75379.84
2018-04-17T00:14:00.834Z,75374.78
2018-04-17T00:16:30.522Z,75380.86
2018-04-17T00:19:00.602Z,75389.97
2018-04-17T00:21:30.286Z,75395.02
2018-04-17T00:24:00.177Z,75400.09
2018-04-17T00:26:30.255Z,75411.22
2018-04-17T00:28:59.875Z,75396.04
2018-04-17T00:31:29.710Z,75409.20
2018-04-17T00:34:00.016Z,75395.02
2018-04-17T00:36:29.579Z,75406.16
2018-04-17T00:38:59.183Z,75426.41
2018-04-17T00:41:29.172Z,75421.34
2018-04-17T00:43:58.685Z,75439.56
2018-04-17T00:46:28.403Z,75467.91
2018-04-17T00:48:58.678Z,75479.03
2018-04-17T00:51:28.200Z,75470.94
2018-04-17T00:53:58.035Z,75437.53
2018-04-17T00:56:28.003Z,75458.80
2018-04-17T00:58:57.972Z,75471.95
2018-04-17T01:01:27.988Z,75473.98
2018-04-17T01:03:57.952Z,75495.23
2018-04-17T01:06:27.617Z,75506.36
2018-04-17T01:08:57.498Z,75488.14
2018-04-17T01:11:27.454Z,75492.19
2018-04-17T01:13:57.205Z,75491.18
2018-04-17T01:16:26.865Z,75493.20
2018-04-17T01:18:57.099Z,75499.28
2018-04-17T01:21:27.014Z,75515.47
2018-04-17T01:23:56.742Z,75526.61
2018-04-17T01:26:26.458Z,75532.69
2018-04-17T01:28:56.016Z,75543.81
2018-04-17T01:31:25.398Z,75523.57
2018-04-17T01:33:55.097Z,75540.78
2018-04-17T01:36:24.659Z,75576.20
2018-04-17T01:38:54.228Z,75584.30
2018-04-17T01:41:23.699Z,75587.34
2018-04-17T01:43:53.601Z,75603.53
2018-04-17T01:46:23.182Z,75609.61
2018-04-17T01:48:52.594Z,75628.84
2018-04-17T01:51:22.067Z,75636.94
2018-04-17T01:53:51.791Z,75656.17
2018-04-17T01:56:21.192Z,75667.31
2018-04-17T01:58:50.638Z,75651.11
2018-04-17T02:01:20.446Z,75659.21
2018-04-17T02:03:49.979Z,75651.11
2018-04-17T02:06:19.647Z,75664.27
2018-04-17T02:08:49.476Z,75701.72
2018-04-17T02:11:19.034Z,75681.48
2018-04-17T02:13:48.716Z,75693.63
2018-04-17T02:16:18.430Z,75703.75
2018-04-17T02:18:47.950Z,75694.64
2018-04-17T02:21:17.611Z,75695.65
2018-04-17T02:23:47.343Z,75700.71
2018-04-17T02:26:16.765Z,75695.65
2018-04-17T02:28:46.502Z,75688.56
2018-04-17T02:31:16.511Z,75644.02
2018-04-17T02:33:46.160Z,75651.11
2018-04-17T02:36:15.923Z,75670.34
2018-04-17T02:38:45.784Z,75674.39
2018-04-17T02:41:15.362Z,75668.32
2018-04-17T02:43:45.002Z,75675.41
2018-04-17T02:46:14.794Z,75699.70
2018-04-17T02:48:44.606Z,75681.48
2018-04-17T02:51:14.190Z,75671.36
2018-04-17T02:53:44.180Z,75706.78
2018-04-17T02:56:13.797Z,75699.70
2018-04-17T02:58:43.259Z,75676.41
2018-04-17T03:01:12.855Z,75674.39
2018-04-17T03:03:42.647Z,75671.36
2018-04-17T03:06:12.363Z,75674.39
2018-04-17T03:08:41.859Z,75674.39
2018-04-17T03:11:19.970Z,75707.80
2018-04-17T03:13:49.672Z,75676.41
2018-04-17T03:16:19.657Z,75688.56
2018-04-17T03:18:49.442Z,75704.76
2018-04-17T03:21:18.859Z,75720.95
2018-04-17T03:23:48.542Z,75744.23
2018-04-17T03:26:17.971Z,75774.61
2018-04-17T03:28:47.537Z,75802.95
2018-04-17T03:31:17.362Z,75773.59
2018-04-17T03:33:46.944Z,75791.81
2018-04-17T03:36:16.387Z,75773.59
2018-04-17T03:38:46.052Z,75756.39
2018-04-17T03:41:16.062Z,75751.33
2018-04-17T03:43:45.988Z,75740.19
2018-04-17T03:46:15.390Z,75736.14
2018-04-17T03:48:45.160Z,75738.16
2018-04-17T03:51:14.702Z,75732.09
2018-04-17T03:53:44.132Z,75739.17
2018-04-17T03:56:14.319Z,75739.17
2018-04-17T03:58:44.042Z,75749.30
2018-04-17T04:01:13.740Z,75759.42
2018-04-17T04:03:43.220Z,75734.11
2018-04-17T04:06:13.042Z,75749.30
2018-04-17T04:08:42.664Z,75765.50
2018-04-17T04:11:12.163Z,75775.62
2018-04-17T04:13:41.900Z,75772.58
2018-04-17T04:16:20.214Z,75782.70
2018-04-17T04:21:07.679Z,75785.74
2018-04-17T04:25:51.835Z,75751.33
2018-04-17T04:28:21.717Z,75768.53
2018-04-17T04:30:51.319Z,75802.95
2018-04-17T04:33:21.071Z,75809.02
2018-04-17T04:35:51.012Z,75780.68
2018-04-17T04:38:20.884Z,75805.98
2018-04-17T04:40:50.289Z,75796.88
2018-04-17T04:43:20.083Z,75832.30
2018-04-17T04:45:49.697Z,75830.28
2018-04-17T04:48:19.159Z,75837.37
2018-04-17T04:50:48.958Z,75836.36
2018-04-17T04:53:18.635Z,75840.41
2018-04-17T04:55:48.111Z,75812.06
2018-04-17T04:58:18.236Z,75839.39
2018-04-17T05:00:48.025Z,75822.19
2018-04-17T05:03:17.705Z,75842.43
2018-04-17T05:05:48.070Z,75900.13
2018-04-17T05:08:17.667Z,75888.99
2018-04-17T05:10:47.307Z,75842.43
2018-04-17T05:13:16.999Z,75814.09
2018-04-17T05:15:46.597Z,75847.48
2018-04-17T05:18:16.207Z,75844.45
2018-04-17T05:20:46.011Z,75798.90
2018-04-17T05:23:15.936Z,75787.77
2018-04-17T05:25:45.391Z,75829.27
2018-04-17T05:28:15.539Z,75848.50
2018-04-17T05:30:45.018Z,75802.95
2018-04-17T05:33:15.752Z,75798.90
2018-04-17T05:35:45.831Z,75801.94
2018-04-17T05:38:15.279Z,75837.37
2018-04-17T05:40:45.151Z,75845.47
2018-04-17T05:43:14.959Z,75795.86
2018-04-17T05:45:44.655Z,75840.41
2018-04-17T05:48:14.369Z,75848.50
2018-04-17T05:50:44.483Z,75835.34
2018-04-17T05:53:14.227Z,75827.24
2018-04-17T05:55:43.707Z,75770.55
2018-04-17T05:58:13.662Z,75811.05
2018-04-17T06:00:43.192Z,75836.36
2018-04-17T06:03:12.665Z,75817.13
2018-04-17T06:05:42.797Z,75808.02
2018-04-17T06:08:12.295Z,75805.98
2018-04-17T06:10:41.779Z,75839.39
2018-04-17T06:13:11.571Z,75834.33
2018-04-17T06:15:40.983Z,75803.96
2018-04-17T06:18:10.446Z,75789.79
2018-04-17T06:20:40.200Z,75788.78
2018-04-17T06:23:09.773Z,75790.80
2018-04-17T06:25:39.656Z,75782.70
2018-04-17T06:28:09.438Z,75771.56
2018-04-17T06:30:38.903Z,75852.55
2018-04-17T06:33:08.328Z,75874.82
2018-04-17T06:35:38.080Z,75844.45
2018-04-17T06:38:07.528Z,75900.13
2018-04-17T06:40:36.998Z,75864.70
2018-04-17T06:43:06.779Z,75792.83
2018-04-17T06:45:36.275Z,75829.27
2018-04-17T06:48:06.157Z,75833.32
2018-04-17T06:50:36.462Z,75882.92
2018-04-17T06:53:06.158Z,75901.14
2018-04-17T06:55:36.075Z,75834.33
2018-04-17T06:58:06.286Z,75835.34
2018-04-17T07:00:35.764Z,75829.27
2018-04-17T07:03:05.341Z,75785.74
2018-04-17T07:05:35.645Z,75823.20
2018-04-17T07:08:05.155Z,75822.19
2018-04-17T07:10:34.632Z,75856.60
2018-04-17T07:13:04.383Z,75854.58
2018-04-17T07:15:34.115Z,75859.64
2018-04-17T07:18:03.578Z,75803.96
2018-04-17T07:20:33.056Z,75787.77
2018-04-17T07:23:04.048Z,75814.09
2018-04-17T07:25:33.628Z,75771.56
2018-04-17T07:28:03.116Z,75782.70
2018-04-17T07:30:32.843Z,75711.84
2018-04-17T07:33:02.735Z,75653.13
2018-04-17T07:35:32.161Z,75655.16
2018-04-17T07:38:02.383Z,75639.98
2018-04-17T07:40:31.943Z,75608.59
2018-04-17T07:43:01.731Z,75636.94
2018-04-17T07:45:32.010Z,75589.36
2018-04-17T07:48:10.142Z,75564.06
2018-04-17T07:50:40.218Z,75581.27
2018-04-17T07:53:10.044Z,75466.89
2018-04-17T07:55:39.527Z,75511.42
2018-04-17T07:58:09.240Z,75517.50
2018-04-17T08:00:38.649Z,75457.78
2018-04-17T08:03:08.438Z,75436.52
2018-04-17T08:05:38.144Z,75447.66
2018-04-17T08:08:07.841Z,75432.47
2018-04-17T08:10:37.248Z,75482.07
2018-04-17T08:13:07.034Z,75492.19
2018-04-17T08:15:36.467Z,75438.55
2018-04-17T08:18:06.174Z,75452.72
2018-04-17T08:20:36.044Z,75550.91
2018-04-17T08:23:05.487Z,75451.70
2018-04-17T08:25:34.949Z,75436.52
2018-04-17T08:28:04.680Z,75479.03
2018-04-17T08:30:34.308Z,75572.16
2018-04-17T08:33:04.028Z,75493.20
2018-04-17T08:35:33.910Z,75495.23
2018-04-17T08:38:03.331Z,75423.36
2018-04-17T08:40:32.994Z,75437.53
2018-04-17T08:43:02.987Z,75409.20
2018-04-17T08:45:32.643Z,75380.86
2018-04-17T08:48:02.134Z,75524.58
2018-04-17T08:50:32.191Z,75514.46
2018-04-17T08:53:01.857Z,75418.30
2018-04-17T08:55:31.309Z,75388.95
2018-04-17T08:58:01.360Z,75325.19
2018-04-17T09:00:31.027Z,75355.55
2018-04-17T09:03:00.512Z,75402.11
2018-04-17T09:05:30.474Z,75432.47
2018-04-17T09:08:00.107Z,75360.61
2018-04-17T09:10:29.811Z,75345.43
2018-04-17T09:12:59.549Z,75317.09
2018-04-17T09:15:29.050Z,75336.32
2018-04-17T09:17:58.446Z,75278.63
2018-04-17T09:20:28.134Z,75426.41
2018-04-17T09:22:57.539Z,75323.16
2018-04-17T09:25:27.135Z,75317.09
2018-04-17T09:27:56.837Z,75334.30
2018-04-17T09:30:26.303Z,75283.69
2018-04-17T09:32:56.559Z,75353.53
2018-04-17T09:35:26.919Z,75304.94
2018-04-17T09:37:56.430Z,75257.38
2018-04-17T09:40:25.855Z,75277.61
2018-04-17T09:42:55.563Z,75426.41
2018-04-17T09:45:25.050Z,75349.48
2018-04-17T09:47:54.530Z,75258.38
2018-04-17T09:50:24.321Z,75189.56
2018-04-17T09:52:54.142Z,75102.52
2018-04-17T09:55:23.590Z,75079.25
2018-04-17T09:57:53.704Z,75230.05
2018-04-17T10:00:23.722Z,75210.81
2018-04-17T10:02:53.395Z,75216.89
2018-04-17T10:05:23.191Z,75111.63
2018-04-17T10:07:52.799Z,75155.16
2018-04-17T10:10:22.482Z,75068.11
2018-04-17T10:12:52.291Z,75061.03
2018-04-17T10:15:21.719Z,75061.03
2018-04-17T10:17:51.138Z,75181.47
2018-04-17T10:20:20.867Z,75052.93
2018-04-17T10:22:50.267Z,74978.04
2018-04-17T10:25:20.419Z,75001.31
2018-04-17T10:27:50.251Z,74949.70
2018-04-17T10:30:19.685Z,74917.31
2018-04-17T10:32:49.260Z,74948.69
2018-04-17T10:35:19.195Z,74940.59
2018-04-17T10:37:48.630Z,74903.16
2018-04-17T10:40:18.682Z,74833.32
2018-04-17T10:42:48.371Z,74873.80
2018-04-17T10:45:18.157Z,74785.76
2018-04-17T10:47:47.698Z,74750.34
2018-04-17T10:50:17.382Z,74792.84
2018-04-17T10:52:46.831Z,74756.41
2018-04-17T10:55:16.231Z,74866.72
2018-04-17T10:57:46.010Z,74963.88
2018-04-17T11:00:15.575Z,74870.77
2018-04-17T11:02:45.070Z,74779.69
2018-04-17T11:05:15.293Z,74735.16
2018-04-17T11:07:45.979Z,74831.30
2018-04-17T11:10:15.463Z,74718.97
2018-04-17T11:12:46.220Z,74734.15
2018-04-17T11:15:15.626Z,74982.09
2018-04-17T11:17:45.419Z,74923.39
2018-04-17T11:20:15.132Z,74994.23
2018-04-17T11:22:44.563Z,74878.86
2018-04-17T11:25:14.249Z,74863.68
2018-04-17T11:27:43.934Z,74865.70
2018-04-17T11:30:13.447Z,74739.20
2018-04-17T11:32:42.908Z,74761.47
2018-04-17T11:35:12.695Z,75066.09
2018-04-17T11:37:42.111Z,75081.27
2018-04-17T11:40:11.760Z,75148.06
2018-04-17T11:42:41.899Z,75072.16
2018-04-17T11:45:11.399Z,74869.75
2018-04-17T11:47:40.826Z,74728.08
2018-04-17T11:50:10.627Z,74694.68
2018-04-17T11:52:40.089Z,74937.56
2018-04-17T11:55:09.560Z,75011.44
2018-04-17T11:57:39.307Z,74927.44
2018-04-17T12:00:09.003Z,74901.13
2018-04-17T12:02:38.423Z,74885.95
2018-04-17T12:05:08.180Z,74954.77
2018-04-17T12:07:37.759Z,75124.78
2018-04-17T12:10:07.181Z,74950.72
2018-04-17T12:12:36.869Z,74947.68
2018-04-17T12:15:06.327Z,74966.91
2018-04-17T12:17:35.758Z,74913.27
2018-04-17T12:20:05.486Z,75030.67
2018-04-17T12:22:34.947Z,75050.91
2018-04-17T12:25:04.425Z,75088.36
2018-04-17T12:27:34.157Z,74944.64
2018-04-17T12:30:03.582Z,74745.28
2018-04-17T12:32:33.012Z,74820.16
2018-04-17T12:35:02.784Z,74769.56
2018-04-17T12:37:32.519Z,74754.39
2018-04-17T12:40:02.174Z,74866.72
2018-04-17T12:42:32.480Z,74808.02
2018-04-17T12:45:01.916Z,74776.65
2018-04-17T12:47:31.351Z,75020.55
2018-04-17T12:50:01.064Z,74891.00
2018-04-17T12:52:30.495Z,74733.14
2018-04-17T12:54:59.935Z,74659.27
2018-04-17T12:57:29.929Z,74574.27
2018-04-17T12:59:59.378Z,74635.98
2018-04-17T13:02:28.809Z,74590.45
2018-04-17T13:04:58.521Z,74573.25
2018-04-17T13:07:28.018Z,74547.95
2018-04-17T13:09:57.443Z,74772.60
2018-04-17T13:12:27.120Z,74766.53
2018-04-17T13:14:56.568Z,74662.30
2018-04-17T13:17:26.032Z,74685.58
2018-04-17T13:19:55.763Z,74815.11
2018-04-17T13:22:25.203Z,74723.02
2018-04-17T13:24:55.059Z,74829.27
2018-04-17T13:27:24.757Z,74867.73
2018-04-17T13:29:54.220Z,74765.52
2018-04-17T13:32:23.678Z,74602.59
2018-04-17T13:34:53.395Z,74628.91
2018-04-17T13:37:22.826Z,74602.59
2018-04-17T13:39:52.227Z,74581.34
2018-04-17T13:42:21.978Z,74781.71
2018-04-17T13:44:51.474Z,74680.52
2018-04-17T13:47:21.076Z,74640.03
2018-04-17T13:49:50.806Z,74637.00
2018-04-17T13:52:20.320Z,74722.00
2018-04-17T13:54:49.770Z,74825.22
2018-04-17T13:57:19.514Z,74720.99
2018-04-17T13:59:48.996Z,74776.65
2018-04-17T14:02:18.515Z,74844.45
2018-04-17T14:04:48.236Z,74830.28
2018-04-17T14:07:17.688Z,74818.14
2018-04-17T14:09:47.133Z,74868.74
2018-04-17T14:12:17.080Z,74852.55
2018-04-17T14:14:46.555Z,74943.63
2018-04-17T14:17:15.990Z,74794.86
2018-04-17T14:19:45.902Z,74814.09
2018-04-17T14:22:15.322Z,74846.48
2018-04-17T14:24:44.718Z,74821.17
2018-04-17T14:27:14.442Z,74819.16
2018-04-17T14:29:43.835Z,74825.22
2018-04-17T14:32:13.293Z,74831.30
2018-04-17T14:34:43.007Z,74918.33
2018-04-17T14:37:12.474Z,74823.20
2018-04-17T14:39:41.890Z,74863.68
2018-04-17T14:42:11.634Z,74824.21
2018-04-17T14:44:41.023Z,74781.71
2018-04-17T14:47:10.478Z,74826.23
2018-04-17T14:49:40.211Z,74815.11
2018-04-17T14:52:09.698Z,74820.16
2018-04-17T14:54:39.087Z,74850.52
2018-04-17T14:57:09.408Z,74812.07
2018-04-17T14:59:39.102Z,74828.27
2018-04-17T15:02:08.839Z,74858.63
2018-04-17T15:04:38.539Z,74782.72
2018-04-17T15:07:08.023Z,74783.73
2018-04-17T15:09:37.438Z,74793.85
2018-04-17T15:12:07.242Z,74809.03
2018-04-17T15:14:36.730Z,74829.27
2018-04-17T15:17:06.203Z,74837.38
2018-04-17T15:19:36.001Z,74799.92
2018-04-17T15:22:05.491Z,74780.70
2018-04-17T15:24:34.930Z,74829.27
2018-04-17T15:27:04.614Z,74791.83
2018-04-17T15:29:34.050Z,74766.53
2018-04-17T15:32:03.630Z,74780.70
2018-04-17T15:34:33.330Z,74822.19
2018-04-17T15:37:02.763Z,74762.48
2018-04-17T15:39:32.195Z,74752.36
2018-04-17T15:42:01.875Z,74782.72
2018-04-17T15:44:31.301Z,74755.40
2018-04-17T15:47:00.774Z,74829.27
2018-04-17T15:49:30.490Z,74906.19
2018-04-17T15:51:59.910Z,74854.58
2018-04-17T15:54:29.384Z,74886.95
2018-04-17T15:56:59.091Z,74943.63
2018-04-17T15:59:28.859Z,74901.13
2018-04-17T16:01:58.282Z,74846.48
2018-04-17T16:04:28.096Z,74853.56
2018-04-17T16:06:57.548Z,74846.48
2018-04-17T16:09:27.006Z,74858.63
2018-04-17T16:11:56.702Z,74842.43
2018-04-17T16:14:26.180Z,74847.48
2018-04-17T16:16:55.663Z,74843.44
2018-04-17T16:19:25.615Z,74850.52
2018-04-17T16:21:55.051Z,74840.41
2018-04-17T16:24:24.515Z,74828.27
2018-04-17T16:26:54.221Z,74868.74
2018-04-17T16:29:23.982Z,74864.70
2018-04-17T16:31:53.520Z,74883.92
2018-04-17T16:34:23.413Z,74903.16
2018-04-17T16:36:53.289Z,74964.88
2018-04-17T16:39:22.786Z,74874.81
2018-04-17T16:41:52.631Z,74848.50
2018-04-17T16:44:22.314Z,74842.43
2018-04-17T16:46:51.774Z,74871.78
2018-04-17T16:49:21.557Z,74856.59
2018-04-17T16:51:50.999Z,74864.70
2018-04-17T16:54:20.500Z,74881.90
2018-04-17T16:56:50.210Z,74882.91
2018-04-17T16:59:19.628Z,74914.28
2018-04-17T17:01:49.380Z,74919.34
2018-04-17T17:04:19.132Z,74898.09
2018-04-17T17:06:48.567Z,74901.13
2018-04-17T17:09:18.075Z,74920.35
2018-04-17T17:11:47.781Z,74956.78
2018-04-17T17:14:17.326Z,74943.63
2018-04-17T17:16:46.855Z,74938.57
2018-04-17T17:19:16.595Z,74965.89
2018-04-17T17:21:46.114Z,74973.99
2018-04-17T17:24:16.217Z,75012.45
2018-04-17T17:26:45.925Z,75034.72
2018-04-17T17:29:15.480Z,75042.81
2018-04-17T17:31:44.959Z,75042.81
2018-04-17T17:34:14.743Z,75074.19
2018-04-17T17:36:44.642Z,75102.52
2018-04-17T17:39:14.131Z,75146.05
2018-04-17T17:41:44.238Z,75146.05
2018-04-17T17:44:13.716Z,75132.88
2018-04-17T17:46:43.286Z,75134.91
2018-04-17T17:49:13.222Z,75152.11
2018-04-17T17:51:42.878Z,75182.48
2018-04-17T17:54:12.379Z,75173.37
2018-04-17T17:56:42.348Z,75224.98
2018-04-17T17:59:11.834Z,75253.33
2018-04-17T18:01:41.418Z,75235.11
2018-04-17T18:04:11.227Z,75234.09
2018-04-17T18:06:40.747Z,75218.91
2018-04-17T18:09:10.378Z,75213.85
2018-04-17T18:11:40.299Z,75219.92
2018-04-17T18:14:10.681Z,75220.94
2018-04-17T18:16:40.241Z,75231.06
2018-04-17T18:19:10.069Z,75232.07
2018-04-17T18:21:39.504Z,75248.27
2018-04-17T18:24:09.026Z,75254.34
2018-04-17T18:26:38.957Z,75253.33
2018-04-17T18:29:08.537Z,75276.60
2018-04-17T18:31:38.075Z,75342.39
2018-04-17T18:34:08.130Z,75351.50
2018-04-17T18:36:37.771Z,75342.39
2018-04-17T18:39:07.772Z,75322.15
2018-04-17T18:41:37.748Z,75336.32
2018-04-17T18:44:07.552Z,75324.17
2018-04-17T18:46:37.057Z,75343.41
2018-04-17T18:49:06.815Z,75341.38
2018-04-17T18:51:36.366Z,75351.50
2018-04-17T18:54:05.793Z,75357.58
2018-04-17T18:56:35.599Z,75364.66
2018-04-17T18:59:05.039Z,75387.94
2018-04-17T19:01:34.511Z,75406.16
2018-04-17T19:04:04.503Z,75405.14
2018-04-17T19:06:34.007Z,75397.05
2018-04-17T19:09:04.822Z,75419.31
2018-04-17T19:11:34.558Z,75416.28
2018-04-17T19:14:04.019Z,75428.42
2018-04-17T19:16:33.457Z,75418.30
2018-04-17T19:19:03.227Z,75421.34
2018-04-17T19:21:32.924Z,75459.80
2018-04-17T19:24:02.424Z,75488.14
2018-04-17T19:26:32.447Z,75513.45
2018-04-17T19:29:06.243Z,75512.44
2018-04-17T19:31:35.743Z,75552.92
2018-04-17T19:34:05.512Z,75515.47
2018-04-17T19:36:34.970Z,75508.39
2018-04-17T19:39:04.713Z,75506.36
2018-04-17T19:41:35.838Z,75509.40
2018-04-17T19:44:05.267Z,75508.39
2018-04-17T19:46:34.871Z,75495.23
2018-04-17T19:49:04.690Z,75522.56
2018-04-17T19:51:34.105Z,75534.70
2018-04-17T19:54:03.595Z,75553.94
2018-04-17T19:56:33.609Z,75557.98
2018-04-17T19:59:03.859Z,75575.20
2018-04-17T20:01:33.418Z,75560.01
2018-04-17T20:04:07.230Z,75557.98
2018-04-17T20:06:36.791Z,75625.80
2018-04-17T20:09:07.188Z,75617.70
2018-04-17T20:11:36.958Z,75660.22
2018-04-17T20:14:06.511Z,75664.27
2018-04-17T20:16:36.176Z,75665.28
2018-04-17T20:19:06.022Z,75648.08
2018-04-17T20:21:35.524Z,75592.41
2018-04-17T20:24:05.046Z,75626.81
2018-04-17T20:26:34.811Z,75613.66
2018-04-17T20:29:04.356Z,75614.67
2018-04-17T20:31:33.824Z,75628.84
2018-04-17T20:34:03.563Z,75624.80
2018-04-17T20:36:32.990Z,75632.89
2018-04-17T20:39:02.631Z,75642.00
2018-04-17T20:41:33.028Z,75648.08
2018-04-17T20:44:02.670Z,75642.00
2018-04-17T20:49:02.251Z,75652.13
2018-04-17T20:51:31.883Z,75633.91
2018-04-17T20:54:01.500Z,75637.95
2018-04-17T20:56:31.443Z,75612.64
2018-04-17T20:59:01.040Z,75650.09
2018-04-17T21:01:30.659Z,75733.10
2018-04-17T21:04:00.688Z,75732.09
2018-04-17T21:06:30.186Z,75750.31
2018-04-17T21:08:59.731Z,75751.33
2018-04-17T21:11:29.863Z,75754.36
2018-04-17T21:13:59.817Z,75713.87
2018-04-17T21:16:29.314Z,75700.71
2018-04-17T21:18:59.350Z,75726.02
2018-04-17T21:21:29.215Z,75779.67
2018-04-17T21:23:58.638Z,75792.83
2018-04-17T21:26:28.551Z,75835.34
2018-04-17T21:28:58.545Z,75865.71
2018-04-17T21:31:27.930Z,75924.42
2018-04-17T21:33:57.966Z,75948.72
2018-04-17T21:36:27.602Z,75972.00
2018-04-17T21:38:57.006Z,75958.84
2018-04-17T21:41:26.723Z,75931.52
2018-04-17T21:43:56.160Z,75930.50
2018-04-17T21:46:25.629Z,75934.55
2018-04-17T21:48:55.410Z,75904.18
2018-04-17T21:51:24.872Z,75938.59
2018-04-17T21:53:54.288Z,75919.36
2018-04-17T21:56:24.010Z,75910.25
2018-04-17T21:58:53.810Z,75942.65
2018-04-17T22:01:28.686Z,75961.88
2018-04-17T22:03:58.387Z,75927.46
2018-04-17T22:06:28.199Z,75989.22
2018-04-17T22:08:57.699Z,75986.18
2018-04-17T22:11:27.503Z,75965.93
2018-04-17T22:13:57.063Z,75993.27
2018-04-17T22:16:26.559Z,76013.51
2018-04-17T22:18:56.679Z,76028.70
2018-04-17T22:21:26.460Z,76017.56
2018-04-17T22:23:56.049Z,76011.48
2018-04-17T22:26:25.788Z,76062.10
2018-04-17T22:28:55.217Z,76013.51
2018-04-17T22:31:25.079Z,76061.09
2018-04-17T22:33:58.757Z,76008.45
2018-04-17T22:36:33.315Z,76068.17
2018-04-17T22:39:03.766Z,76110.70
2018-04-17T22:41:33.539Z,76094.50
2018-04-17T22:44:03.090Z,76117.78
2018-04-17T22:46:33.367Z,76132.97
2018-04-17T22:49:03.226Z,76129.93
2018-04-17T22:51:32.927Z,76119.81
2018-04-17T22:54:02.747Z,76110.70
2018-04-17T22:56:32.487Z,76101.58
2018-04-17T22:59:02.507Z,76117.78
2018-04-17T23:01:32.452Z,76129.93
2018-04-17T23:04:01.905Z,76155.24
2018-04-17T23:06:31.746Z,76156.25
2018-04-17T23:09:01.632Z,76150.17
2018-04-17T23:11:31.046Z,76146.13
2018-04-17T23:14:00.472Z,76153.22
2018-04-17T23:16:30.335Z,76156.25
2018-04-17T23:18:59.782Z,76175.48
2018-04-17T23:21:29.487Z,76194.72
2018-04-17T23:23:59.183Z,76198.77
2018-04-17T23:26:28.570Z,76180.55
2018-04-17T23:28:57.975Z,76183.59
2018-04-17T23:31:27.726Z,76207.88
2018-04-17T23:33:57.234Z,76168.41
2018-04-17T23:36:26.952Z,76213.96
2018-04-17T23:38:56.630Z,76234.20
2018-04-17T23:41:26.102Z,76212.95
2018-04-17T23:43:55.679Z,76230.16
2018-04-17T23:46:25.414Z,76250.41
2018-04-17T23:48:55.330Z,76263.56
2018-04-17T23:51:26.227Z,76245.34
2018-04-17T23:53:57.532Z,76217.00
2018-04-17T23:56:27.270Z,76230.16
2018-04-17T23:58:57.075Z,76238.26
